sensor_id;sensor_type;location;lat;lon;timestamp;pressure;altitude;pressure_sealevel;temperature;humidity
55538;BME280;41383;51.418;7.286;2023-06-26T00:01:30;99584.88;;;25.09;44.01
55538;BME280;41383;51.418;7.286;2023-06-26T00:03:59;99583.72;;;25.10;44.14
55538;BME280;41383;51.418;7.286;2023-06-26T00:06:25;99587.59;;;25.05;44.24
55538;BME280;41383;51.418;7.286;2023-06-26T00:08:52;99585.63;;;25.05;44.08
55538;BME280;41383;51.418;7.286;2023-06-26T00:11:18;99584.25;;;24.95;44.38
55538;BME280;41383;51.418;7.286;2023-06-26T00:13:43;99590.31;;;25.01;44.27
55538;BME280;41383;51.418;7.286;2023-06-26T00:16:09;99584.69;;;24.98;44.29
55538;BME280;41383;51.418;7.286;2023-06-26T00:18:34;99575.75;;;24.92;44.25
55538;BME280;41383;51.418;7.286;2023-06-26T00:20:59;99589.25;;;24.90;44.32
55538;BME280;41383;51.418;7.286;2023-06-26T00:23:24;99585.69;;;24.89;44.71
55538;BME280;41383;51.418;7.286;2023-06-26T00:25:50;99593.22;;;24.89;44.70
55538;BME280;41383;51.418;7.286;2023-06-26T00:28:15;99587.97;;;24.83;44.39
55538;BME280;41383;51.418;7.286;2023-06-26T00:30:40;99580.31;;;24.80;44.82
55538;BME280;41383;51.418;7.286;2023-06-26T00:33:05;99585.88;;;24.80;44.87
55538;BME280;41383;51.418;7.286;2023-06-26T00:35:31;99583.97;;;24.84;44.79
55538;BME280;41383;51.418;7.286;2023-06-26T00:37:56;99573.28;;;24.87;44.98
55538;BME280;41383;51.418;7.286;2023-06-26T00:40:22;99580.38;;;24.84;44.70
55538;BME280;41383;51.418;7.286;2023-06-26T00:42:47;99577.09;;;24.78;44.98
55538;BME280;41383;51.418;7.286;2023-06-26T00:45:12;99584.28;;;24.79;45.03
55538;BME280;41383;51.418;7.286;2023-06-26T00:47:38;99581.25;;;24.88;45.12
55538;BME280;41383;51.418;7.286;2023-06-26T00:50:04;99573.13;;;24.79;45.12
55538;BME280;41383;51.418;7.286;2023-06-26T00:52:30;99575.75;;;24.72;44.85
55538;BME280;41383;51.418;7.286;2023-06-26T00:54:56;99583.25;;;24.68;45.16
55538;BME280;41383;51.418;7.286;2023-06-26T00:57:22;99575.50;;;24.77;45.17
55538;BME280;41383;51.418;7.286;2023-06-26T00:59:48;99574.59;;;24.73;44.76
55538;BME280;41383;51.418;7.286;2023-06-26T01:02:13;99575.75;;;24.72;45.20
55538;BME280;41383;51.418;7.286;2023-06-26T01:04:45;99574.44;;;24.66;45.08
55538;BME280;41383;51.418;7.286;2023-06-26T01:07:13;99569.03;;;24.73;44.93
55538;BME280;41383;51.418;7.286;2023-06-26T01:09:38;99560.00;;;24.80;45.17
55538;BME280;41383;51.418;7.286;2023-06-26T01:12:03;99560.38;;;24.78;44.94
55538;BME280;41383;51.418;7.286;2023-06-26T01:14:29;99565.13;;;24.78;45.16
55538;BME280;41383;51.418;7.286;2023-06-26T01:16:54;99557.13;;;24.76;44.86
55538;BME280;41383;51.418;7.286;2023-06-26T01:19:28;99550.63;;;24.68;44.65
55538;BME280;41383;51.418;7.286;2023-06-26T01:22:23;99551.94;;;24.75;44.50
55538;BME280;41383;51.418;7.286;2023-06-26T01:27:34;99552.31;;;24.73;45.00
55538;BME280;41383;51.418;7.286;2023-06-26T01:30:02;99541.94;;;24.74;44.82
55538;BME280;41383;51.418;7.286;2023-06-26T01:32:29;99544.22;;;24.68;44.80
55538;BME280;41383;51.418;7.286;2023-06-26T01:34:57;99544.66;;;24.70;44.81
55538;BME280;41383;51.418;7.286;2023-06-26T01:37:22;99541.94;;;24.74;44.87
55538;BME280;41383;51.418;7.286;2023-06-26T01:39:48;99538.38;;;24.73;44.80
55538;BME280;41383;51.418;7.286;2023-06-26T01:42:13;99537.84;;;24.67;44.80
55538;BME280;41383;51.418;7.286;2023-06-26T01:44:43;99529.84;;;24.66;44.88
55538;BME280;41383;51.418;7.286;2023-06-26T01:47:11;99533.00;;;24.64;44.86
55538;BME280;41383;51.418;7.286;2023-06-26T01:49:47;99542.56;;;24.63;44.61
55538;BME280;41383;51.418;7.286;2023-06-26T01:52:26;99533.84;;;24.65;44.41
55538;BME280;41383;51.418;7.286;2023-06-26T01:55:12;99532.13;;;24.60;44.60
55538;BME280;41383;51.418;7.286;2023-06-26T01:57:41;99528.97;;;24.62;44.79
55538;BME280;41383;51.418;7.286;2023-06-26T02:00:08;99531.31;;;24.59;44.59
55538;BME280;41383;51.418;7.286;2023-06-26T02:02:36;99530.38;;;24.52;44.90
55538;BME280;41383;51.418;7.286;2023-06-26T02:05:01;99528.78;;;24.51;44.91
55538;BME280;41383;51.418;7.286;2023-06-26T02:07:27;99521.94;;;24.48;45.00
55538;BME280;41383;51.418;7.286;2023-06-26T02:09:52;99526.84;;;24.35;45.06
55538;BME280;41383;51.418;7.286;2023-06-26T02:12:17;99530.44;;;24.35;45.29
55538;BME280;41383;51.418;7.286;2023-06-26T02:14:42;99527.88;;;24.46;44.90
55538;BME280;41383;51.418;7.286;2023-06-26T02:17:08;99523.09;;;24.47;44.96
55538;BME280;41383;51.418;7.286;2023-06-26T02:19:33;99523.09;;;24.47;45.14
55538;BME280;41383;51.418;7.286;2023-06-26T02:21:59;99523.41;;;24.62;45.23
55538;BME280;41383;51.418;7.286;2023-06-26T02:24:24;99518.41;;;24.51;44.89
55538;BME280;41383;51.418;7.286;2023-06-26T02:26:49;99527.72;;;24.39;45.19
55538;BME280;41383;51.418;7.286;2023-06-26T02:29:15;99521.38;;;24.39;45.38
55538;BME280;41383;51.418;7.286;2023-06-26T02:31:40;99526.56;;;24.40;45.08
55538;BME280;41383;51.418;7.286;2023-06-26T02:34:06;99529.28;;;24.36;45.13
55538;BME280;41383;51.418;7.286;2023-06-26T02:36:31;99527.66;;;24.35;45.07
55538;BME280;41383;51.418;7.286;2023-06-26T02:38:57;99524.78;;;24.32;45.09
55538;BME280;41383;51.418;7.286;2023-06-26T02:41:22;99532.34;;;24.31;44.74
55538;BME280;41383;51.418;7.286;2023-06-26T02:43:47;99526.31;;;24.29;44.99
55538;BME280;41383;51.418;7.286;2023-06-26T02:46:12;99531.44;;;24.27;45.21
55538;BME280;41383;51.418;7.286;2023-06-26T02:48:38;99528.72;;;24.31;44.96
55538;BME280;41383;51.418;7.286;2023-06-26T02:51:03;99527.31;;;24.21;45.21
55538;BME280;41383;51.418;7.286;2023-06-26T02:53:28;99529.78;;;24.22;45.23
55538;BME280;41383;51.418;7.286;2023-06-26T02:55:54;99532.19;;;24.24;45.13
55538;BME280;41383;51.418;7.286;2023-06-26T02:58:19;99540.09;;;24.22;45.46
55538;BME280;41383;51.418;7.286;2023-06-26T03:00:44;99536.31;;;24.30;45.71
55538;BME280;41383;51.418;7.286;2023-06-26T03:03:09;99541.13;;;24.33;45.31
55538;BME280;41383;51.418;7.286;2023-06-26T03:05:35;99529.47;;;24.28;45.69
55538;BME280;41383;51.418;7.286;2023-06-26T03:08:00;99541.78;;;24.10;45.93
55538;BME280;41383;51.418;7.286;2023-06-26T03:10:25;99547.56;;;24.01;46.07
55538;BME280;41383;51.418;7.286;2023-06-26T03:12:51;99535.88;;;24.12;45.85
55538;BME280;41383;51.418;7.286;2023-06-26T03:15:16;99545.31;;;24.23;46.22
55538;BME280;41383;51.418;7.286;2023-06-26T03:17:41;99554.47;;;24.24;45.71
55538;BME280;41383;51.418;7.286;2023-06-26T03:20:07;99540.38;;;24.00;46.06
55538;BME280;41383;51.418;7.286;2023-06-26T03:22:33;99544.34;;;23.99;46.24
55538;BME280;41383;51.418;7.286;2023-06-26T03:24:58;99553.78;;;23.95;46.34
55538;BME280;41383;51.418;7.286;2023-06-26T03:27:24;99553.84;;;23.98;46.47
55538;BME280;41383;51.418;7.286;2023-06-26T03:29:49;99560.22;;;23.99;46.38
55538;BME280;41383;51.418;7.286;2023-06-26T03:32:14;99558.19;;;23.96;46.36
55538;BME280;41383;51.418;7.286;2023-06-26T03:34:40;99562.88;;;23.75;46.83
55538;BME280;41383;51.418;7.286;2023-06-26T03:37:05;99568.53;;;23.79;46.95
55538;BME280;41383;51.418;7.286;2023-06-26T03:39:30;99570.84;;;23.77;46.80
55538;BME280;41383;51.418;7.286;2023-06-26T03:41:55;99582.34;;;23.92;47.28
55538;BME280;41383;51.418;7.286;2023-06-26T03:44:25;99583.03;;;23.88;47.23
55538;BME280;41383;51.418;7.286;2023-06-26T03:46:50;99582.41;;;23.95;47.56
55538;BME280;41383;51.418;7.286;2023-06-26T03:49:15;99576.84;;;23.95;47.58
55538;BME280;41383;51.418;7.286;2023-06-26T03:51:41;99582.50;;;23.99;47.38
55538;BME280;41383;51.418;7.286;2023-06-26T03:54:06;99575.13;;;23.90;47.20
55538;BME280;41383;51.418;7.286;2023-06-26T03:56:31;99575.69;;;23.80;47.64
55538;BME280;41383;51.418;7.286;2023-06-26T03:58:56;99591.59;;;23.63;48.09
55538;BME280;41383;51.418;7.286;2023-06-26T04:01:22;99587.00;;;23.55;48.91
55538;BME280;41383;51.418;7.286;2023-06-26T04:03:47;99582.97;;;23.52;49.32
55538;BME280;41383;51.418;7.286;2023-06-26T04:06:12;99584.06;;;23.35;50.06
55538;BME280;41383;51.418;7.286;2023-06-26T04:08:37;99580.53;;;23.51;49.91
55538;BME280;41383;51.418;7.286;2023-06-26T04:11:03;99593.09;;;23.44;50.43
55538;BME280;41383;51.418;7.286;2023-06-26T04:13:28;99586.41;;;23.33;50.83
55538;BME280;41383;51.418;7.286;2023-06-26T04:15:53;99597.81;;;23.44;50.88
55538;BME280;41383;51.418;7.286;2023-06-26T04:18:18;99589.63;;;23.35;51.25
55538;BME280;41383;51.418;7.286;2023-06-26T04:21:04;99595.75;;;23.25;51.61
55538;BME280;41383;51.418;7.286;2023-06-26T04:23:31;99606.94;;;23.28;51.88
55538;BME280;41383;51.418;7.286;2023-06-26T04:25:56;99606.03;;;23.24;52.11
55538;BME280;41383;51.418;7.286;2023-06-26T04:28:23;99614.84;;;23.26;52.18
55538;BME280;41383;51.418;7.286;2023-06-26T04:30:48;99611.19;;;23.38;52.23
55538;BME280;41383;51.418;7.286;2023-06-26T04:33:13;99616.25;;;23.20;52.85
55538;BME280;41383;51.418;7.286;2023-06-26T04:35:40;99618.75;;;23.25;53.03
55538;BME280;41383;51.418;7.286;2023-06-26T04:38:05;99629.09;;;23.25;53.20
55538;BME280;41383;51.418;7.286;2023-06-26T04:40:30;99618.88;;;23.29;53.24
55538;BME280;41383;51.418;7.286;2023-06-26T04:42:56;99622.22;;;23.35;53.52
55538;BME280;41383;51.418;7.286;2023-06-26T04:45:21;99626.06;;;23.30;53.73
55538;BME280;41383;51.418;7.286;2023-06-26T04:47:46;99626.25;;;23.37;53.63
55538;BME280;41383;51.418;7.286;2023-06-26T04:50:11;99625.53;;;23.40;53.26
55538;BME280;41383;51.418;7.286;2023-06-26T04:52:37;99633.44;;;23.38;54.13
55538;BME280;41383;51.418;7.286;2023-06-26T04:55:03;99634.84;;;23.32;54.06
55538;BME280;41383;51.418;7.286;2023-06-26T04:57:28;99640.50;;;23.36;54.41
55538;BME280;41383;51.418;7.286;2023-06-26T04:59:53;99649.66;;;23.36;54.31
55538;BME280;41383;51.418;7.286;2023-06-26T05:02:18;99643.84;;;23.41;54.53
55538;BME280;41383;51.418;7.286;2023-06-26T05:04:44;99644.75;;;23.46;54.70
55538;BME280;41383;51.418;7.286;2023-06-26T05:07:09;99638.41;;;23.45;54.82
55538;BME280;41383;51.418;7.286;2023-06-26T05:09:34;99635.63;;;23.45;55.13
55538;BME280;41383;51.418;7.286;2023-06-26T05:12:01;99647.53;;;23.46;55.20
55538;BME280;41383;51.418;7.286;2023-06-26T05:14:27;99645.31;;;23.51;55.34
55538;BME280;41383;51.418;7.286;2023-06-26T05:16:52;99648.00;;;23.48;56.12
55538;BME280;41383;51.418;7.286;2023-06-26T05:19:18;99652.34;;;23.32;56.50
55538;BME280;41383;51.418;7.286;2023-06-26T05:21:43;99642.13;;;23.37;56.61
55538;BME280;41383;51.418;7.286;2023-06-26T05:24:09;99644.47;;;23.63;56.17
55538;BME280;41383;51.418;7.286;2023-06-26T05:26:36;99648.22;;;23.55;56.37
55538;BME280;41383;51.418;7.286;2023-06-26T05:29:01;99641.78;;;23.38;56.96
55538;BME280;41383;51.418;7.286;2023-06-26T05:31:27;99641.22;;;23.32;57.45
55538;BME280;41383;51.418;7.286;2023-06-26T05:33:53;99647.25;;;23.35;57.29
55538;BME280;41383;51.418;7.286;2023-06-26T05:36:21;99650.94;;;23.39;57.67
55538;BME280;41383;51.418;7.286;2023-06-26T05:38:49;99645.78;;;23.25;57.91
55538;BME280;41383;51.418;7.286;2023-06-26T05:41:15;99657.81;;;23.29;58.09
55538;BME280;41383;51.418;7.286;2023-06-26T05:43:41;99651.69;;;23.23;58.21
55538;BME280;41383;51.418;7.286;2023-06-26T05:46:06;99655.28;;;23.24;58.07
55538;BME280;41383;51.418;7.286;2023-06-26T05:48:31;99654.13;;;23.25;58.41
55538;BME280;41383;51.418;7.286;2023-06-26T05:50:57;99675.50;;;23.37;58.30
55538;BME280;41383;51.418;7.286;2023-06-26T05:53:22;99674.56;;;23.45;57.85
55538;BME280;41383;51.418;7.286;2023-06-26T05:55:48;99674.28;;;23.21;57.92
55538;BME280;41383;51.418;7.286;2023-06-26T05:58:14;99678.53;;;23.31;58.14
55538;BME280;41383;51.418;7.286;2023-06-26T06:00:40;99673.28;;;23.42;57.38
55538;BME280;41383;51.418;7.286;2023-06-26T06:03:06;99685.53;;;23.54;57.36
55538;BME280;41383;51.418;7.286;2023-06-26T06:05:31;99686.81;;;23.44;57.45
55538;BME280;41383;51.418;7.286;2023-06-26T06:07:56;99696.56;;;23.38;57.86
55538;BME280;41383;51.418;7.286;2023-06-26T06:10:22;99695.72;;;23.21;58.05
55538;BME280;41383;51.418;7.286;2023-06-26T06:12:47;99682.19;;;23.07;58.04
55538;BME280;41383;51.418;7.286;2023-06-26T06:15:12;99680.34;;;23.11;58.36
55538;BME280;41383;51.418;7.286;2023-06-26T06:17:37;99694.47;;;23.18;58.09
55538;BME280;41383;51.418;7.286;2023-06-26T06:20:03;99685.91;;;23.11;58.28
55538;BME280;41383;51.418;7.286;2023-06-26T06:22:29;99700.47;;;23.20;58.35
55538;BME280;41383;51.418;7.286;2023-06-26T06:24:54;99706.19;;;22.99;58.54
55538;BME280;41383;51.418;7.286;2023-06-26T06:27:19;99709.50;;;23.17;58.42
55538;BME280;41383;51.418;7.286;2023-06-26T06:29:45;99705.81;;;23.13;58.36
55538;BME280;41383;51.418;7.286;2023-06-26T06:32:10;99712.28;;;23.17;58.30
55538;BME280;41383;51.418;7.286;2023-06-26T06:34:35;99712.25;;;23.30;58.10
55538;BME280;41383;51.418;7.286;2023-06-26T06:37:02;99709.47;;;23.30;57.94
55538;BME280;41383;51.418;7.286;2023-06-26T06:39:27;99706.97;;;23.25;58.57
55538;BME280;41383;51.418;7.286;2023-06-26T06:41:52;99702.31;;;23.29;58.83
55538;BME280;41383;51.418;7.286;2023-06-26T06:44:18;99711.06;;;23.31;58.41
55538;BME280;41383;51.418;7.286;2023-06-26T06:46:43;99705.50;;;23.31;58.48
55538;BME280;41383;51.418;7.286;2023-06-26T06:49:08;99709.47;;;23.30;58.65
55538;BME280;41383;51.418;7.286;2023-06-26T06:51:34;99720.34;;;23.35;58.42
55538;BME280;41383;51.418;7.286;2023-06-26T06:53:59;99711.94;;;23.19;58.75
55538;BME280;41383;51.418;7.286;2023-06-26T06:56:24;99706.34;;;23.31;58.69
55538;BME280;41383;51.418;7.286;2023-06-26T06:58:49;99727.75;;;23.31;59.04
55538;BME280;41383;51.418;7.286;2023-06-26T07:01:15;99717.34;;;23.28;59.03
55538;BME280;41383;51.418;7.286;2023-06-26T07:03:40;99724.81;;;23.11;58.92
55538;BME280;41383;51.418;7.286;2023-06-26T07:06:05;99735.41;;;23.34;59.20
55538;BME280;41383;51.418;7.286;2023-06-26T07:08:31;99732.63;;;23.47;58.75
55538;BME280;41383;51.418;7.286;2023-06-26T07:10:56;99735.06;;;23.36;58.78
55538;BME280;41383;51.418;7.286;2023-06-26T07:13:25;99757.31;;;23.36;58.96
55538;BME280;41383;51.418;7.286;2023-06-26T07:15:50;99757.84;;;23.41;58.72
55538;BME280;41383;51.418;7.286;2023-06-26T07:18:16;99756.94;;;23.50;58.61
55538;BME280;41383;51.418;7.286;2023-06-26T07:20:41;99756.47;;;23.35;58.45
55538;BME280;41383;51.418;7.286;2023-06-26T07:23:07;99764.19;;;23.13;59.56
55538;BME280;41383;51.418;7.286;2023-06-26T07:25:33;99769.53;;;23.06;59.79
55538;BME280;41383;51.418;7.286;2023-06-26T07:27:58;99769.75;;;23.13;59.93
55538;BME280;41383;51.418;7.286;2023-06-26T07:30:23;99764.00;;;23.06;59.91
55538;BME280;41383;51.418;7.286;2023-06-26T07:32:49;99773.47;;;23.05;60.16
55538;BME280;41383;51.418;7.286;2023-06-26T07:35:15;99757.16;;;23.03;60.08
55538;BME280;41383;51.418;7.286;2023-06-26T07:37:40;99764.44;;;23.08;60.26
55538;BME280;41383;51.418;7.286;2023-06-26T07:40:06;99774.00;;;23.36;59.82
55538;BME280;41383;51.418;7.286;2023-06-26T07:42:32;99775.81;;;23.44;59.74
55538;BME280;41383;51.418;7.286;2023-06-26T07:44:57;99772.06;;;23.24;59.96
55538;BME280;41383;51.418;7.286;2023-06-26T07:47:22;99766.97;;;23.13;60.06
55538;BME280;41383;51.418;7.286;2023-06-26T07:49:47;99776.97;;;23.02;60.75
55538;BME280;41383;51.418;7.286;2023-06-26T07:52:14;99772.19;;;23.15;60.51
55538;BME280;41383;51.418;7.286;2023-06-26T07:54:40;99765.81;;;23.27;60.58
55538;BME280;41383;51.418;7.286;2023-06-26T07:57:05;99770.84;;;23.37;60.44
55538;BME280;41383;51.418;7.286;2023-06-26T07:59:34;99764.41;;;23.62;60.03
55538;BME280;41383;51.418;7.286;2023-06-26T08:01:59;99768.28;;;23.57;59.72
55538;BME280;41383;51.418;7.286;2023-06-26T08:04:27;99763.00;;;23.68;60.11
55538;BME280;41383;51.418;7.286;2023-06-26T08:06:55;99777.69;;;23.52;59.82
55538;BME280;41383;51.418;7.286;2023-06-26T08:09:23;99772.56;;;23.54;59.39
55538;BME280;41383;51.418;7.286;2023-06-26T08:11:49;99778.69;;;23.60;59.37
55538;BME280;41383;51.418;7.286;2023-06-26T08:14:15;99777.19;;;23.63;59.37
55538;BME280;41383;51.418;7.286;2023-06-26T08:16:41;99781.53;;;23.76;59.38
55538;BME280;41383;51.418;7.286;2023-06-26T08:19:07;99779.44;;;24.02;58.63
55538;BME280;41383;51.418;7.286;2023-06-26T08:21:33;99791.38;;;24.02;58.36
55538;BME280;41383;51.418;7.286;2023-06-26T08:23:58;99787.41;;;23.87;59.34
55538;BME280;41383;51.418;7.286;2023-06-26T08:26:23;99793.63;;;24.13;59.17
55538;BME280;41383;51.418;7.286;2023-06-26T08:28:49;99802.53;;;24.19;58.30
55538;BME280;41383;51.418;7.286;2023-06-26T08:31:14;99788.47;;;24.28;58.28
55538;BME280;41383;51.418;7.286;2023-06-26T08:33:39;99803.69;;;24.18;58.24
55538;BME280;41383;51.418;7.286;2023-06-26T08:36:04;99804.44;;;24.31;58.12
55538;BME280;41383;51.418;7.286;2023-06-26T08:38:30;99815.88;;;24.42;58.09
55538;BME280;41383;51.418;7.286;2023-06-26T08:40:55;99816.34;;;24.15;58.52
55538;BME280;41383;51.418;7.286;2023-06-26T08:43:20;99816.81;;;24.17;58.42
55538;BME280;41383;51.418;7.286;2023-06-26T08:45:47;99818.66;;;24.25;58.52
55538;BME280;41383;51.418;7.286;2023-06-26T08:48:16;99819.22;;;24.19;58.57
55538;BME280;41383;51.418;7.286;2023-06-26T08:50:43;99822.69;;;24.28;58.70
55538;BME280;41383;51.418;7.286;2023-06-26T08:53:29;99816.94;;;24.53;58.62
55538;BME280;41383;51.418;7.286;2023-06-26T08:55:57;99821.91;;;24.60;58.37
55538;BME280;41383;51.418;7.286;2023-06-26T08:58:25;99814.00;;;24.30;58.27
55538;BME280;41383;51.418;7.286;2023-06-26T09:00:50;99825.69;;;24.07;59.38
55538;BME280;41383;51.418;7.286;2023-06-26T09:03:16;99821.59;;;24.33;59.24
55538;BME280;41383;51.418;7.286;2023-06-26T09:05:42;99833.38;;;24.26;58.06
55538;BME280;41383;51.418;7.286;2023-06-26T09:08:07;99825.50;;;24.28;58.51
55538;BME280;41383;51.418;7.286;2023-06-26T09:10:33;99830.78;;;24.49;58.07
55538;BME280;41383;51.418;7.286;2023-06-26T09:12:59;99841.56;;;24.35;58.15
55538;BME280;41383;51.418;7.286;2023-06-26T09:15:26;99836.25;;;24.30;57.28
55538;BME280;41383;51.418;7.286;2023-06-26T09:17:56;99833.16;;;24.19;57.72
55538;BME280;41383;51.418;7.286;2023-06-26T09:20:21;99841.50;;;24.19;58.09
55538;BME280;41383;51.418;7.286;2023-06-26T09:22:47;99841.75;;;24.26;57.91
55538;BME280;41383;51.418;7.286;2023-06-26T09:25:13;99846.78;;;24.36;57.94
55538;BME280;41383;51.418;7.286;2023-06-26T09:27:40;99841.94;;;24.66;57.49
55538;BME280;41383;51.418;7.286;2023-06-26T09:30:08;99846.38;;;24.67;57.01
55538;BME280;41383;51.418;7.286;2023-06-26T09:32:36;99832.06;;;24.84;56.15
55538;BME280;41383;51.418;7.286;2023-06-26T09:35:03;99828.28;;;24.93;56.08
55538;BME280;41383;51.418;7.286;2023-06-26T09:37:28;99831.69;;;25.02;56.32
55538;BME280;41383;51.418;7.286;2023-06-26T09:39:54;99836.56;;;24.73;56.03
55538;BME280;41383;51.418;7.286;2023-06-26T09:42:19;99837.00;;;24.91;55.75
55538;BME280;41383;51.418;7.286;2023-06-26T09:44:45;99838.91;;;25.03;55.28
55538;BME280;41383;51.418;7.286;2023-06-26T09:47:11;99836.31;;;25.30;54.06
55538;BME280;41383;51.418;7.286;2023-06-26T09:49:41;99839.84;;;25.27;53.53
55538;BME280;41383;51.418;7.286;2023-06-26T09:52:07;99837.75;;;25.24;53.82
55538;BME280;41383;51.418;7.286;2023-06-26T09:54:32;99847.38;;;25.27;53.20
55538;BME280;41383;51.418;7.286;2023-06-26T09:57:20;99848.34;;;25.35;52.33
55538;BME280;41383;51.418;7.286;2023-06-26T09:59:45;99844.22;;;25.28;52.51
55538;BME280;41383;51.418;7.286;2023-06-26T10:02:11;99849.72;;;25.25;52.42
55538;BME280;41383;51.418;7.286;2023-06-26T10:04:37;99858.63;;;25.30;52.39
55538;BME280;41383;51.418;7.286;2023-06-26T10:07:10;99851.19;;;25.55;51.96
55538;BME280;41383;51.418;7.286;2023-06-26T10:09:40;99855.00;;;25.66;51.64
55538;BME280;41383;51.418;7.286;2023-06-26T10:12:29;99863.47;;;25.70;50.55
55538;BME280;41383;51.418;7.286;2023-06-26T10:14:58;99859.75;;;25.82;50.06
55538;BME280;41383;51.418;7.286;2023-06-26T10:17:27;99866.66;;;25.68;49.97
55538;BME280;41383;51.418;7.286;2023-06-26T10:19:58;99861.13;;;25.72;47.97
55538;BME280;41383;51.418;7.286;2023-06-26T10:22:27;99868.91;;;25.62;48.76
55538;BME280;41383;51.418;7.286;2023-06-26T10:24:55;99866.81;;;25.59;49.88
55538;BME280;41383;51.418;7.286;2023-06-26T10:27:26;99864.16;;;25.83;49.43
55538;BME280;41383;51.418;7.286;2023-06-26T10:29:55;99864.16;;;25.83;48.76
55538;BME280;41383;51.418;7.286;2023-06-26T10:32:23;99858.63;;;26.06;47.83
55538;BME280;41383;51.418;7.286;2023-06-26T10:34:49;99867.31;;;26.01;47.52
55538;BME280;41383;51.418;7.286;2023-06-26T10:37:15;99865.91;;;26.11;47.17
55538;BME280;41383;51.418;7.286;2023-06-26T10:39:50;99861.38;;;26.26;46.67
55538;BME280;41383;51.418;7.286;2023-06-26T10:42:17;99860.88;;;26.40;47.25
55538;BME280;41383;51.418;7.286;2023-06-26T10:44:43;99851.06;;;26.74;46.55
55538;BME280;41383;51.418;7.286;2023-06-26T10:47:10;99853.22;;;26.84;45.86
55538;BME280;41383;51.418;7.286;2023-06-26T10:49:36;99864.16;;;26.93;45.10
55538;BME280;41383;51.418;7.286;2023-06-26T10:52:04;99869.78;;;26.46;44.37
55538;BME280;41383;51.418;7.286;2023-06-26T10:54:31;99873.25;;;26.19;44.01
55538;BME280;41383;51.418;7.286;2023-06-26T10:56:56;99877.78;;;26.28;44.68
55538;BME280;41383;51.418;7.286;2023-06-26T10:59:24;99875.56;;;26.37;43.95
55538;BME280;41383;51.418;7.286;2023-06-26T11:02:01;99876.16;;;26.27;43.43
55538;BME280;41383;51.418;7.286;2023-06-26T11:04:50;99878.63;;;25.88;44.81
55538;BME280;41383;51.418;7.286;2023-06-26T11:07:25;99878.84;;;26.19;44.88
55538;BME280;41383;51.418;7.286;2023-06-26T11:10:09;99876.59;;;26.49;44.66
55538;BME280;41383;51.418;7.286;2023-06-26T11:12:42;99876.03;;;26.63;44.40
55538;BME280;41383;51.418;7.286;2023-06-26T11:15:15;99876.72;;;26.79;43.15
55538;BME280;41383;51.418;7.286;2023-06-26T11:17:42;99870.50;;;26.90;43.86
55538;BME280;41383;51.418;7.286;2023-06-26T11:20:15;99867.19;;;27.08;42.94
55538;BME280;41383;51.418;7.286;2023-06-26T11:22:41;99852.59;;;26.95;42.38
55538;BME280;41383;51.418;7.286;2023-06-26T11:25:08;99866.25;;;26.73;43.03
55538;BME280;41383;51.418;7.286;2023-06-26T11:27:43;99874.97;;;26.95;43.26
55538;BME280;41383;51.418;7.286;2023-06-26T11:30:10;99876.41;;;27.08;43.91
55538;BME280;41383;51.418;7.286;2023-06-26T11:32:37;99889.75;;;27.19;42.89
55538;BME280;41383;51.418;7.286;2023-06-26T11:35:03;99902.59;;;26.73;43.13
55538;BME280;41383;51.418;7.286;2023-06-26T11:37:30;99897.22;;;26.64;43.37
55538;BME280;41383;51.418;7.286;2023-06-26T11:39:55;99884.53;;;26.46;43.26
55538;BME280;41383;51.418;7.286;2023-06-26T11:42:21;99897.41;;;26.31;43.87
55538;BME280;41383;51.418;7.286;2023-06-26T11:44:46;99908.81;;;26.03;44.71
55538;BME280;41383;51.418;7.286;2023-06-26T11:47:20;99904.72;;;25.76;44.51
55538;BME280;41383;51.418;7.286;2023-06-26T11:49:46;99918.28;;;25.78;44.44
55538;BME280;41383;51.418;7.286;2023-06-26T11:52:12;99921.22;;;25.85;45.14
55538;BME280;41383;51.418;7.286;2023-06-26T11:54:37;99920.00;;;25.83;44.42
55538;BME280;41383;51.418;7.286;2023-06-26T11:57:03;99918.22;;;25.94;43.59
55538;BME280;41383;51.418;7.286;2023-06-26T11:59:36;99917.91;;;25.80;43.05
55538;BME280;41383;51.418;7.286;2023-06-26T12:02:14;99922.03;;;25.86;42.27
55538;BME280;41383;51.418;7.286;2023-06-26T12:04:42;99920.41;;;26.25;42.91
55538;BME280;41383;51.418;7.286;2023-06-26T12:07:08;99923.59;;;26.23;42.20
55538;BME280;41383;51.418;7.286;2023-06-26T12:09:43;99918.44;;;26.45;42.15
55538;BME280;41383;51.418;7.286;2023-06-26T12:12:10;99921.63;;;26.43;42.07
55538;BME280;41383;51.418;7.286;2023-06-26T12:14:36;99930.44;;;26.26;41.92
55538;BME280;41383;51.418;7.286;2023-06-26T12:17:11;99940.47;;;26.30;41.82
55538;BME280;41383;51.418;7.286;2023-06-26T12:19:38;99930.72;;;26.20;42.45
55538;BME280;41383;51.418;7.286;2023-06-26T12:22:07;99934.19;;;26.14;42.32
55538;BME280;41383;51.418;7.286;2023-06-26T12:24:36;99938.00;;;26.05;42.10
55538;BME280;41383;51.418;7.286;2023-06-26T12:27:02;99956.81;;;26.08;42.10
55538;BME280;41383;51.418;7.286;2023-06-26T12:29:34;99947.84;;;25.99;40.86
55538;BME280;41383;51.418;7.286;2023-06-26T12:31:59;99944.88;;;25.72;40.83
55538;BME280;41383;51.418;7.286;2023-06-26T12:34:33;99939.47;;;25.79;39.50
55538;BME280;41383;51.418;7.286;2023-06-26T12:37:07;99940.91;;;25.73;39.44
55538;BME280;41383;51.418;7.286;2023-06-26T12:39:52;99951.28;;;25.56;38.50
55538;BME280;41383;51.418;7.286;2023-06-26T12:42:22;99950.53;;;25.75;38.38
55538;BME280;41383;51.418;7.286;2023-06-26T12:44:48;99954.69;;;26.21;37.32
55538;BME280;41383;51.418;7.286;2023-06-26T12:47:15;99964.03;;;26.29;37.03
55538;BME280;41383;51.418;7.286;2023-06-26T12:49:41;99968.97;;;26.56;36.98
55538;BME280;41383;51.418;7.286;2023-06-26T12:52:10;99975.44;;;26.60;37.15
55538;BME280;41383;51.418;7.286;2023-06-26T12:54:38;99973.56;;;26.91;37.02
55538;BME280;41383;51.418;7.286;2023-06-26T12:57:04;99977.69;;;26.98;36.71
55538;BME280;41383;51.418;7.286;2023-06-26T12:59:30;99981.63;;;26.93;36.43
55538;BME280;41383;51.418;7.286;2023-06-26T13:01:55;99975.34;;;26.56;36.74